createdAt,value
2022-12-25T00:01:25.210Z,7.20
2022-12-25T00:03:52.958Z,7.20
2022-12-25T00:06:19.972Z,7.20
2022-12-25T00:08:46.861Z,7.30
2022-12-25T00:11:16.677Z,7.30
2022-12-25T00:13:44.230Z,7.30
2022-12-25T00:16:22.726Z,7.30
2022-12-25T00:18:51.238Z,7.30
2022-12-25T00:21:19.315Z,7.30
2022-12-25T00:23:46.254Z,7.30
2022-12-25T00:26:15.673Z,7.30
2022-12-25T00:28:42.883Z,7.30
2022-12-25T00:31:16.463Z,7.30
2022-12-25T00:33:45.268Z,7.30
2022-12-25T00:36:14.453Z,7.30
2022-12-25T00:38:42.029Z,7.30
2022-12-25T00:41:11.651Z,7.20
2022-12-25T00:43:44.319Z,7.30
2022-12-25T00:46:12.944Z,7.30
2022-12-25T00:48:40.437Z,7.20
2022-12-25T00:51:10.785Z,7.20
2022-12-25T00:53:37.462Z,7.20
2022-12-25T00:56:06.515Z,7.10
2022-12-25T00:58:34.899Z,7.20
2022-12-25T01:01:02.980Z,7.10
2022-12-25T01:03:30.232Z,7.10
2022-12-25T01:06:00.627Z,7.10
2022-12-25T01:08:27.697Z,7.10
2022-12-25T01:10:59.649Z,7.10
2022-12-25T01:13:27.779Z,7.00
2022-12-25T01:15:54.742Z,7.00
2022-12-25T01:18:22.752Z,6.90
2022-12-25T01:20:49.606Z,6.90
2022-12-25T01:23:17.016Z,6.90
2022-12-25T01:25:44.004Z,6.90
2022-12-25T01:28:10.778Z,6.90
2022-12-25T01:30:37.708Z,6.90
2022-12-25T01:33:04.502Z,6.90
2022-12-25T01:35:31.399Z,7.00
2022-12-25T01:37:58.158Z,7.00
2022-12-25T01:40:24.968Z,7.00
2022-12-25T01:42:51.806Z,7.10
2022-12-25T01:45:38.467Z,7.10
2022-12-25T01:48:09.938Z,7.10
2022-12-25T01:50:38.603Z,7.20
2022-12-25T01:53:06.914Z,7.20
2022-12-25T01:55:35.009Z,7.20
2022-12-25T01:58:02.226Z,7.30
2022-12-25T02:00:29.038Z,7.30
2022-12-25T02:02:56.392Z,7.30
2022-12-25T02:05:29.990Z,7.30
2022-12-25T02:08:00.667Z,7.40
2022-12-25T02:10:27.467Z,7.40
2022-12-25T02:12:54.366Z,7.40
2022-12-25T02:15:24.067Z,7.50
2022-12-25T02:18:19.994Z,7.50
2022-12-25T02:21:18.330Z,7.50
2022-12-25T02:23:50.992Z,7.50
2022-12-25T02:26:50.679Z,7.50
2022-12-25T02:29:58.664Z,7.50
2022-12-25T02:32:34.856Z,7.50
2022-12-25T02:35:01.582Z,7.50
2022-12-25T02:38:03.404Z,7.40
2022-12-25T02:40:43.802Z,7.50
2022-12-25T02:43:35.374Z,7.40
2022-12-25T02:46:27.818Z,7.40
2022-12-25T02:49:28.200Z,7.40
2022-12-25T02:52:15.722Z,7.50
2022-12-25T02:55:06.398Z,7.40
2022-12-25T02:57:58.928Z,7.40
2022-12-25T03:00:44.521Z,7.40
2022-12-25T03:03:32.361Z,7.40
2022-12-25T03:06:22.422Z,7.40
2022-12-25T03:08:52.700Z,7.40
2022-12-25T03:11:31.639Z,7.40
2022-12-25T03:14:22.879Z,7.40
2022-12-25T03:16:54.935Z,7.40
2022-12-25T03:20:02.883Z,7.40
2022-12-25T03:22:50.675Z,7.40
2022-12-25T03:25:37.329Z,7.40
2022-12-25T03:28:05.993Z,7.40
2022-12-25T03:31:02.529Z,7.40
2022-12-25T03:33:46.264Z,7.40
2022-12-25T03:36:22.770Z,7.40
2022-12-25T03:39:07.593Z,7.40
2022-12-25T03:42:07.607Z,7.40
2022-12-25T03:44:55.473Z,7.40
2022-12-25T03:47:37.297Z,7.40
2022-12-25T03:50:26.524Z,7.40
2022-12-25T03:53:13.968Z,7.40
2022-12-25T03:56:00.671Z,7.40
2022-12-25T03:58:46.571Z,7.40
2022-12-25T04:01:32.540Z,7.50
2022-12-25T04:04:18.031Z,7.40
2022-12-25T04:07:04.489Z,7.50
2022-12-25T04:09:49.587Z,7.50
2022-12-25T04:12:34.948Z,7.50
2022-12-25T04:15:20.274Z,7.50
2022-12-25T04:18:05.867Z,7.50
2022-12-25T04:20:50.976Z,7.50
2022-12-25T04:23:36.191Z,7.50
2022-12-25T04:26:21.452Z,7.60
2022-12-25T04:29:06.779Z,7.60
2022-12-25T04:31:52.022Z,7.60
2022-12-25T04:34:37.240Z,7.60
2022-12-25T04:37:04.023Z,7.60
2022-12-25T04:39:30.765Z,7.60
2022-12-25T04:41:58.595Z,7.60
2022-12-25T04:44:25.346Z,7.60
2022-12-25T04:46:52.178Z,7.60
2022-12-25T04:49:19.049Z,7.60
2022-12-25T04:51:45.827Z,7.60
2022-12-25T04:54:12.609Z,7.60
2022-12-25T04:56:45.239Z,7.60
2022-12-25T04:59:12.832Z,7.70
2022-12-25T05:01:39.809Z,7.60
2022-12-25T05:04:06.925Z,7.60
2022-12-25T05:06:33.704Z,7.60
2022-12-25T05:09:00.550Z,7.60
2022-12-25T05:11:27.650Z,7.60
2022-12-25T05:13:54.443Z,7.50
2022-12-25T05:16:21.608Z,7.50
2022-12-25T05:18:50.030Z,7.50
2022-12-25T05:21:17.257Z,7.50
2022-12-25T05:23:50.234Z,7.50
2022-12-25T05:26:20.131Z,7.50
2022-12-25T05:28:47.107Z,7.40
2022-12-25T05:31:14.403Z,7.40
2022-12-25T05:33:41.409Z,7.40
2022-12-25T05:36:10.339Z,7.40
2022-12-25T05:38:37.766Z,7.40
2022-12-25T05:41:05.408Z,7.30
2022-12-25T05:43:32.374Z,7.30
2022-12-25T05:46:03.630Z,7.30
2022-12-25T05:48:30.416Z,7.30
2022-12-25T05:50:57.202Z,7.30
2022-12-25T05:53:23.976Z,7.30
2022-12-25T05:55:50.773Z,7.30
2022-12-25T05:58:17.519Z,7.20
2022-12-25T06:00:44.677Z,7.20
2022-12-25T06:03:11.545Z,7.20
2022-12-25T06:05:39.599Z,7.20
2022-12-25T06:08:06.446Z,7.10
2022-12-25T06:10:33.215Z,7.00
2022-12-25T06:13:00.832Z,7.00
2022-12-25T06:15:27.691Z,6.90
2022-12-25T06:17:54.504Z,6.90
2022-12-25T06:20:21.667Z,6.80
2022-12-25T06:22:48.518Z,6.80
2022-12-25T06:25:15.576Z,6.80
2022-12-25T06:27:42.590Z,6.70
2022-12-25T06:30:10.085Z,6.70
2022-12-25T06:32:36.946Z,6.70
2022-12-25T06:35:03.874Z,6.60
2022-12-25T06:37:31.805Z,6.60
2022-12-25T06:39:58.574Z,6.60
2022-12-25T06:42:25.658Z,6.60
2022-12-25T06:44:53.277Z,6.60
2022-12-25T06:47:19.994Z,6.60
2022-12-25T06:49:46.759Z,6.60
2022-12-25T06:52:13.524Z,6.60
2022-12-25T06:54:40.427Z,6.60
2022-12-25T06:57:07.188Z,6.60
2022-12-25T06:59:33.938Z,6.60
2022-12-25T07:02:00.902Z,6.60
2022-12-25T07:04:35.624Z,6.60
2022-12-25T07:07:08.422Z,6.60
2022-12-25T07:09:36.073Z,6.60
2022-12-25T07:12:13.321Z,6.60
2022-12-25T07:14:40.173Z,6.60
2022-12-25T07:17:07.186Z,6.60
2022-12-25T07:19:34.688Z,6.60
2022-12-25T07:22:03.972Z,6.60
2022-12-25T07:24:30.751Z,6.60
2022-12-25T07:26:57.523Z,6.60
2022-12-25T07:29:24.281Z,6.70
2022-12-25T07:31:51.113Z,6.70
2022-12-25T07:34:18.924Z,6.80
2022-12-25T07:36:46.105Z,6.80
2022-12-25T07:39:13.203Z,6.80
2022-12-25T07:41:40.293Z,6.90
2022-12-25T07:44:07.076Z,6.90
2022-12-25T07:46:33.875Z,6.90
2022-12-25T07:49:01.090Z,7.00
2022-12-25T07:51:30.135Z,7.10
2022-12-25T07:53:57.446Z,7.10
2022-12-25T07:56:24.349Z,7.30
2022-12-25T07:58:51.174Z,7.40
2022-12-25T08:01:21.339Z,7.50
2022-12-25T08:03:51.423Z,7.70
2022-12-25T08:06:19.730Z,7.80
2022-12-25T08:08:46.663Z,7.90
2022-12-25T08:11:13.543Z,8.00
2022-12-25T08:13:40.886Z,8.10
2022-12-25T08:16:09.906Z,8.30
2022-12-25T08:18:38.154Z,8.30
2022-12-25T08:21:10.794Z,8.40
2022-12-25T08:23:40.628Z,8.50
2022-12-25T08:26:08.587Z,8.60
2022-12-25T08:28:36.229Z,8.70
2022-12-25T08:31:20.126Z,8.80
2022-12-25T08:33:48.673Z,8.90
2022-12-25T08:36:15.860Z,9.00
2022-12-25T08:38:43.183Z,9.40
2022-12-25T08:41:11.448Z,9.60
2022-12-25T08:43:38.555Z,9.80
2022-12-25T08:46:05.882Z,10.00
2022-12-25T08:48:32.989Z,10.10
2022-12-25T08:51:00.018Z,10.30
2022-12-25T08:53:26.847Z,10.70
2022-12-25T08:56:01.917Z,11.30
2022-12-25T08:58:28.786Z,12.20
2022-12-25T09:00:56.421Z,12.80
2022-12-25T09:03:23.906Z,13.40
2022-12-25T09:05:51.589Z,14.20
2022-12-25T09:08:18.642Z,14.80
2022-12-25T09:10:45.817Z,15.40
2022-12-25T09:13:12.946Z,15.70
2022-12-25T09:15:40.369Z,15.90
2022-12-25T09:18:07.233Z,16.00
2022-12-25T09:20:33.985Z,16.10
2022-12-25T09:23:00.823Z,16.20
2022-12-25T09:25:27.574Z,16.50
2022-12-25T09:27:56.472Z,16.80
2022-12-25T09:30:23.671Z,16.90
2022-12-25T09:32:50.507Z,17.10
2022-12-25T09:35:20.066Z,17.30
2022-12-25T09:37:46.839Z,17.30
2022-12-25T09:40:17.392Z,17.00
2022-12-25T09:42:45.163Z,16.50
2022-12-25T09:47:56.418Z,15.90
2022-12-25T09:50:43.289Z,15.80
2022-12-25T09:53:22.024Z,15.60
2022-12-25T09:56:20.067Z,15.30
2022-12-25T09:58:46.836Z,15.00
2022-12-25T10:01:41.098Z,14.70
2022-12-25T10:04:46.504Z,14.50
2022-12-25T10:07:27.051Z,14.50
2022-12-25T10:10:24.802Z,14.70
2022-12-25T10:13:23.775Z,15.00
2022-12-25T10:16:05.445Z,15.20
2022-12-25T10:18:48.834Z,15.50
2022-12-25T10:21:18.825Z,15.60
2022-12-25T10:24:05.320Z,15.50
2022-12-25T10:26:34.084Z,15.40
2022-12-25T10:29:10.664Z,15.40
2022-12-25T10:31:37.765Z,15.70
2022-12-25T10:34:05.827Z,16.10
2022-12-25T10:36:33.456Z,16.30
2022-12-25T10:39:00.346Z,16.40
2022-12-25T10:41:51.714Z,16.50
2022-12-25T10:44:21.032Z,16.60
2022-12-25T10:46:59.750Z,16.80
2022-12-25T10:49:37.738Z,16.80
2022-12-25T10:52:18.483Z,16.70
2022-12-25T10:54:45.161Z,16.80
2022-12-25T10:57:16.268Z,16.80
2022-12-25T10:59:48.615Z,16.90
2022-12-25T11:02:28.699Z,16.90
2022-12-25T11:05:02.897Z,17.00
2022-12-25T11:07:30.219Z,16.90
2022-12-25T11:10:05.585Z,16.90
2022-12-25T11:12:38.074Z,16.90
2022-12-25T11:15:43.553Z,16.90
2022-12-25T11:18:22.584Z,17.00
2022-12-25T11:20:54.864Z,17.00
2022-12-25T11:23:24.198Z,17.00
2022-12-25T11:26:02.834Z,16.90
2022-12-25T11:28:31.740Z,16.80
2022-12-25T11:31:02.549Z,16.70
2022-12-25T11:33:46.498Z,16.70
2022-12-25T11:36:30.371Z,16.80
2022-12-25T11:39:01.401Z,16.80
2022-12-25T11:41:33.885Z,16.90
2022-12-25T11:44:05.138Z,16.90
2022-12-25T11:46:41.354Z,16.80
2022-12-25T11:49:14.617Z,16.60
2022-12-25T11:51:46.171Z,16.40
2022-12-25T11:54:25.034Z,16.30
2022-12-25T11:56:52.279Z,16.20
2022-12-25T11:59:26.035Z,16.20
2022-12-25T12:01:58.941Z,16.10
2022-12-25T12:04:36.871Z,16.10
2022-12-25T12:07:13.066Z,15.90
2022-12-25T12:10:16.136Z,15.70
2022-12-25T12:13:10.865Z,15.50
2022-12-25T12:15:45.030Z,15.50
2022-12-25T12:18:26.879Z,15.40
2022-12-25T12:21:01.219Z,15.30
2022-12-25T12:23:34.979Z,15.30
2022-12-25T12:26:02.878Z,15.30
2022-12-25T12:28:43.689Z,15.30
2022-12-25T12:31:10.686Z,15.20
2022-12-25T12:33:59.500Z,15.20
2022-12-25T12:36:36.193Z,15.20
2022-12-25T12:39:05.909Z,15.20
2022-12-25T12:41:48.232Z,15.10
2022-12-25T12:44:17.361Z,15.10
2022-12-25T12:46:56.007Z,15.00
2022-12-25T12:49:32.909Z,14.90
2022-12-25T12:52:06.377Z,14.80
2022-12-25T12:54:33.645Z,14.80
2022-12-25T12:57:04.772Z,14.70
2022-12-25T12:59:46.166Z,14.60
2022-12-25T13:02:37.697Z,14.60
2022-12-25T13:05:14.755Z,14.50
2022-12-25T13:08:02.205Z,14.50
2022-12-25T13:10:32.203Z,14.40
2022-12-25T13:13:06.276Z,14.40
2022-12-25T13:15:34.954Z,14.30
2022-12-25T13:18:09.639Z,14.20
2022-12-25T13:20:40.401Z,14.20
2022-12-25T13:23:15.475Z,14.10
2022-12-25T13:25:42.245Z,14.10
2022-12-25T13:28:14.280Z,14.00
2022-12-25T13:30:41.105Z,14.00
2022-12-25T13:33:16.976Z,13.90
2022-12-25T13:35:44.506Z,13.80
2022-12-25T13:38:18.401Z,13.80
2022-12-25T13:41:13.120Z,13.80
2022-12-25T13:43:41.241Z,13.80
2022-12-25T13:46:11.427Z,13.70
2022-12-25T13:48:38.157Z,13.70
2022-12-25T13:51:04.974Z,13.70
2022-12-25T13:53:31.703Z,13.60
2022-12-25T13:55:59.447Z,13.60
2022-12-25T13:58:31.402Z,13.60
2022-12-25T14:01:00.671Z,13.50
2022-12-25T14:03:42.651Z,13.50
2022-12-25T14:06:30.022Z,13.40
2022-12-25T14:08:58.876Z,13.40
2022-12-25T14:11:29.481Z,13.40
2022-12-25T14:14:03.594Z,13.30
2022-12-25T14:16:30.785Z,13.30
2022-12-25T14:19:02.173Z,13.20
2022-12-25T14:21:38.341Z,13.20
2022-12-25T14:24:13.465Z,13.20
2022-12-25T14:26:40.267Z,13.10
2022-12-25T14:29:15.658Z,13.00
2022-12-25T14:31:44.776Z,13.00
2022-12-25T14:34:20.604Z,13.00
2022-12-25T14:36:48.341Z,12.90
2022-12-25T14:39:36.736Z,12.80
2022-12-25T14:42:22.827Z,12.70
2022-12-25T14:45:32.209Z,12.60
2022-12-25T14:48:25.296Z,12.50
2022-12-25T14:51:17.219Z,12.40
2022-12-25T14:53:54.731Z,12.30
2022-12-25T14:56:24.044Z,12.20
2022-12-25T14:59:00.472Z,12.10
2022-12-25T15:01:30.230Z,12.00
2022-12-25T15:04:07.735Z,11.90
2022-12-25T15:06:34.483Z,11.80
2022-12-25T15:09:04.209Z,11.70
2022-12-25T15:11:30.970Z,11.70
2022-12-25T15:13:58.586Z,11.60
2022-12-25T15:16:31.045Z,11.50
2022-12-25T15:19:00.427Z,11.40
2022-12-25T15:21:33.039Z,11.30
2022-12-25T15:24:00.347Z,11.30
2022-12-25T15:26:29.427Z,11.20
2022-12-25T15:28:56.216Z,11.10
2022-12-25T15:31:28.944Z,11.10
2022-12-25T15:33:58.110Z,10.90
2022-12-25T15:36:25.612Z,10.90
2022-12-25T15:38:52.760Z,10.80
2022-12-25T15:41:42.254Z,10.70
2022-12-25T15:44:10.985Z,10.60
2022-12-25T15:46:38.116Z,10.40
2022-12-25T15:49:04.876Z,10.40
2022-12-25T15:51:31.605Z,10.30
2022-12-25T15:53:59.051Z,10.20
2022-12-25T15:56:26.940Z,10.20
2022-12-25T15:58:53.698Z,10.00
2022-12-25T16:01:21.280Z,9.90
2022-12-25T16:03:48.772Z,9.90
2022-12-25T16:06:17.231Z,9.80
2022-12-25T16:08:44.809Z,9.60
2022-12-25T16:11:11.528Z,9.60
2022-12-25T16:13:38.664Z,9.60
2022-12-25T16:16:06.827Z,9.50
2022-12-25T16:18:33.774Z,9.50
2022-12-25T16:21:00.628Z,9.40
2022-12-25T16:23:27.433Z,9.30
2022-12-25T16:25:54.143Z,9.20
2022-12-25T16:28:20.899Z,9.10
2022-12-25T16:30:47.850Z,9.10
2022-12-25T16:33:15.357Z,8.90
2022-12-25T16:35:42.164Z,8.90
2022-12-25T16:38:08.904Z,8.70
2022-12-25T16:40:35.641Z,8.70
2022-12-25T16:43:02.383Z,8.60
2022-12-25T16:45:29.126Z,8.50
2022-12-25T16:47:56.973Z,8.40
2022-12-25T16:50:23.874Z,8.30
2022-12-25T16:52:50.626Z,8.20
2022-12-25T16:55:17.443Z,8.10
2022-12-25T16:57:47.566Z,8.00
2022-12-25T17:00:14.761Z,8.00
2022-12-25T17:02:41.588Z,7.90
2022-12-25T17:05:09.024Z,7.90
2022-12-25T17:07:37.390Z,7.80
2022-12-25T17:10:06.343Z,7.80
2022-12-25T17:12:33.755Z,7.70
2022-12-25T17:15:00.474Z,7.70
2022-12-25T17:17:27.194Z,7.60
2022-12-25T17:19:53.871Z,7.60
2022-12-25T17:22:20.589Z,7.50
2022-12-25T17:24:47.301Z,7.40
2022-12-25T17:27:14.181Z,7.40
2022-12-25T17:29:41.118Z,7.30
2022-12-25T17:32:08.742Z,7.20
2022-12-25T17:34:35.656Z,7.20
2022-12-25T17:37:02.665Z,7.10
2022-12-25T17:39:29.422Z,7.10
2022-12-25T17:41:56.486Z,7.00
2022-12-25T17:44:23.385Z,7.00
2022-12-25T17:46:50.506Z,6.90
2022-12-25T17:49:20.312Z,6.90
2022-12-25T17:51:47.550Z,6.80
2022-12-25T17:54:14.502Z,6.80
2022-12-25T17:56:41.194Z,6.70
2022-12-25T17:59:10.368Z,6.60
2022-12-25T18:01:38.425Z,6.60
2022-12-25T18:04:06.244Z,6.50
2022-12-25T18:06:35.622Z,6.40
2022-12-25T18:09:02.613Z,6.40
2022-12-25T18:11:33.136Z,6.30
2022-12-25T18:14:04.785Z,6.30
2022-12-25T18:16:34.491Z,6.20
2022-12-25T18:19:02.434Z,6.20
2022-12-25T18:21:29.957Z,6.10
2022-12-25T18:23:56.716Z,6.10
2022-12-25T18:26:23.668Z,6.10
2022-12-25T18:28:51.000Z,6.10
2022-12-25T18:31:23.516Z,6.20
2022-12-25T18:33:51.455Z,6.40
2022-12-25T18:36:22.356Z,6.60
2022-12-25T18:38:50.397Z,6.70
2022-12-25T18:41:17.794Z,6.80
2022-12-25T18:43:54.284Z,6.90
2022-12-25T18:46:24.290Z,7.00
2022-12-25T18:48:51.882Z,7.10
2022-12-25T18:51:19.050Z,7.20
2022-12-25T18:53:46.145Z,7.20
2022-12-25T18:56:15.663Z,7.30
2022-12-25T18:58:42.671Z,7.40
2022-12-25T19:01:15.322Z,7.50
2022-12-25T19:03:42.819Z,7.60
2022-12-25T19:06:09.949Z,7.60
2022-12-25T19:08:36.617Z,7.70
2022-12-25T19:11:07.376Z,7.70
2022-12-25T19:13:34.329Z,7.80
2022-12-25T19:16:01.222Z,7.90
2022-12-25T19:18:27.938Z,7.90
2022-12-25T19:20:54.651Z,7.90
2022-12-25T19:23:21.373Z,7.90
2022-12-25T19:25:49.468Z,8.00
2022-12-25T19:28:17.683Z,7.90
2022-12-25T19:30:44.561Z,7.90
2022-12-25T19:33:17.446Z,7.90
2022-12-25T19:35:45.005Z,7.90
2022-12-25T19:38:11.749Z,7.90
2022-12-25T19:40:39.976Z,7.90
2022-12-25T19:43:06.803Z,7.90
2022-12-25T19:45:33.671Z,7.90
2022-12-25T19:48:00.506Z,8.00
2022-12-25T19:50:31.760Z,8.00
2022-12-25T19:52:58.597Z,8.00
2022-12-25T19:55:25.318Z,8.10
2022-12-25T19:57:52.081Z,8.10
2022-12-25T20:00:18.910Z,8.10
2022-12-25T20:02:45.778Z,8.10
2022-12-25T20:05:12.629Z,8.10
2022-12-25T20:07:39.321Z,8.00
2022-12-25T20:10:07.163Z,8.10
2022-12-25T20:12:33.894Z,8.10
2022-12-25T20:15:00.661Z,8.10
2022-12-25T20:17:27.445Z,8.10
2022-12-25T20:19:54.125Z,8.20
2022-12-25T20:22:20.825Z,8.20
2022-12-25T20:24:48.998Z,8.30
2022-12-25T20:27:15.799Z,8.30
2022-12-25T20:29:42.517Z,8.30
2022-12-25T20:32:09.564Z,8.40
2022-12-25T20:34:36.394Z,8.40
2022-12-25T20:37:03.253Z,8.50
2022-12-25T20:39:29.998Z,8.50
2022-12-25T20:41:56.713Z,8.50
2022-12-25T20:44:23.400Z,8.60
2022-12-25T20:46:50.148Z,8.60
2022-12-25T20:49:16.862Z,8.60
2022-12-25T20:51:43.534Z,8.70
2022-12-25T20:54:12.726Z,8.70
2022-12-25T20:56:40.258Z,8.70
2022-12-25T20:59:07.174Z,8.80
2022-12-25T21:01:33.981Z,8.80
2022-12-25T21:04:00.907Z,8.80
2022-12-25T21:06:27.816Z,8.70
2022-12-25T21:08:54.753Z,8.70
2022-12-25T21:11:21.894Z,8.70
2022-12-25T21:13:49.518Z,8.60
2022-12-25T21:16:19.746Z,8.60
2022-12-25T21:18:47.039Z,8.60
2022-12-25T21:21:13.933Z,8.60
2022-12-25T21:23:40.863Z,8.50
2022-12-25T21:26:19.353Z,8.50
2022-12-25T21:28:47.521Z,8.50
2022-12-25T21:31:14.638Z,8.50
2022-12-25T21:33:54.741Z,8.40
2022-12-25T21:36:34.743Z,8.40
2022-12-25T21:39:07.786Z,8.30
2022-12-25T21:41:37.216Z,8.30
2022-12-25T21:44:04.448Z,8.30
2022-12-25T21:46:31.444Z,8.30
2022-12-25T21:48:58.906Z,8.20
2022-12-25T21:51:49.633Z,8.20
2022-12-25T21:54:17.881Z,8.20
2022-12-25T21:56:47.050Z,8.20
2022-12-25T21:59:16.759Z,8.20
2022-12-25T22:01:43.825Z,8.10
2022-12-25T22:04:11.644Z,8.10
2022-12-25T22:06:56.909Z,8.00
2022-12-25T22:09:23.865Z,7.90
2022-12-25T22:12:09.255Z,7.90
2022-12-25T22:14:54.740Z,7.80
2022-12-25T22:17:47.033Z,7.80
2022-12-25T22:20:30.080Z,7.70
2022-12-25T22:22:57.826Z,7.70
2022-12-25T22:25:24.880Z,7.70
2022-12-25T22:27:52.406Z,7.70
2022-12-25T22:30:21.812Z,7.70
2022-12-25T22:32:49.306Z,7.60
2022-12-25T22:35:16.963Z,7.50
2022-12-25T22:37:43.972Z,7.40
2022-12-25T22:40:15.406Z,7.40
2022-12-25T22:42:42.486Z,7.30
2022-12-25T22:45:10.203Z,7.20
2022-12-25T22:47:36.873Z,7.10
2022-12-25T22:50:04.333Z,7.00
2022-12-25T22:52:31.118Z,6.90
2022-12-25T22:54:57.800Z,6.90
2022-12-25T22:57:24.643Z,6.80
2022-12-25T22:59:52.820Z,6.70
2022-12-25T23:02:20.366Z,6.60
2022-12-25T23:04:47.330Z,6.60
2022-12-25T23:07:15.114Z,6.50
2022-12-25T23:09:42.683Z,6.40
2022-12-25T23:12:29.782Z,6.40
2022-12-25T23:14:57.435Z,6.30
2022-12-25T23:17:43.146Z,6.30
2022-12-25T23:20:29.228Z,6.20
2022-12-25T23:23:14.763Z,6.10
2022-12-25T23:26:00.256Z,6.10
2022-12-25T23:28:45.746Z,6.10
2022-12-25T23:31:12.660Z,6.00
2022-12-25T23:33:39.416Z,6.00
2022-12-25T23:36:06.500Z,6.10
2022-12-25T23:38:33.241Z,6.10
2022-12-25T23:40:59.959Z,6.20
2022-12-25T23:43:26.649Z,6.20
2022-12-25T23:45:53.381Z,6.30
2022-12-25T23:48:20.077Z,6.40
2022-12-25T23:50:46.754Z,6.40
2022-12-25T23:53:13.489Z,6.40
2022-12-25T23:55:42.564Z,6.50
2022-12-25T23:58:10.056Z,6.50
